createdAt,value
2023-09-05T00:02:07.175Z,20.15
2023-09-05T00:04:34.710Z,20.14
2023-09-05T00:07:02.071Z,20.13
2023-09-05T00:09:29.150Z,20.12
2023-09-05T00:11:56.151Z,20.09
2023-09-05T00:14:23.410Z,20.07
2023-09-05T00:16:50.514Z,20.06
2023-09-05T00:19:17.609Z,20.05
2023-09-05T00:21:44.688Z,20.04
2023-09-05T00:24:25.973Z,20.02
2023-09-05T00:26:53.635Z,20.04
2023-09-05T00:29:20.731Z,20.03
2023-09-05T00:31:48.592Z,20.04
2023-09-05T00:34:16.229Z,20.05
2023-09-05T00:36:43.880Z,20.03
2023-09-05T00:39:11.444Z,20.03
2023-09-05T00:41:39.712Z,20.04
2023-09-05T00:44:06.994Z,20.04
2023-09-05T00:46:35.173Z,20.03
2023-09-05T00:49:04.274Z,20.03
2023-09-05T00:51:32.980Z,20.02
2023-09-05T00:54:02.479Z,20.00
2023-09-05T00:56:29.898Z,20.00
2023-09-05T00:58:57.437Z,19.99
2023-09-05T01:01:24.504Z,20.00
2023-09-05T01:03:52.819Z,19.98
2023-09-05T01:06:29.086Z,19.97
2023-09-05T01:09:28.959Z,19.96
2023-09-05T01:11:57.897Z,19.95
2023-09-05T01:14:24.952Z,19.95
2023-09-05T01:16:51.940Z,19.93
2023-09-05T01:19:19.015Z,19.92
2023-09-05T01:22:44.631Z,19.92
2023-09-05T01:25:14.058Z,19.90
2023-09-05T01:27:41.135Z,19.90
2023-09-05T01:30:09.601Z,19.89
2023-09-05T01:32:36.594Z,19.89
2023-09-05T01:35:03.675Z,19.90
2023-09-05T01:37:30.672Z,19.88
2023-09-05T01:39:57.614Z,19.87
2023-09-05T01:42:24.528Z,19.87
2023-09-05T01:44:51.553Z,19.85
2023-09-05T01:47:18.497Z,19.85
2023-09-05T01:49:45.472Z,19.85
2023-09-05T01:52:12.435Z,19.83
2023-09-05T01:54:40.757Z,19.84
2023-09-05T01:57:07.731Z,19.81
2023-09-05T01:59:34.776Z,19.81
2023-09-05T02:02:01.689Z,19.80
2023-09-05T02:04:28.658Z,19.80
2023-09-05T02:06:55.583Z,19.79
2023-09-05T02:09:22.570Z,19.78
2023-09-05T02:11:49.559Z,19.78
2023-09-05T02:14:16.524Z,19.76
2023-09-05T02:16:43.481Z,19.76
2023-09-05T02:19:10.838Z,19.76
2023-09-05T02:21:37.928Z,19.73
2023-09-05T02:24:05.303Z,19.68
2023-09-05T02:26:32.259Z,19.69
2023-09-05T02:28:59.976Z,19.69
2023-09-05T02:31:26.984Z,19.70
2023-09-05T02:33:54.063Z,19.70
2023-09-05T02:36:22.461Z,19.68
2023-09-05T02:38:49.630Z,19.67
2023-09-05T02:41:18.106Z,19.67
2023-09-05T02:43:48.286Z,19.66
2023-09-05T02:46:16.220Z,19.66
2023-09-05T02:48:44.132Z,19.66
2023-09-05T02:51:12.785Z,19.65
2023-09-05T02:53:40.584Z,19.64
2023-09-05T02:56:07.586Z,19.63
2023-09-05T02:58:35.129Z,19.62
2023-09-05T03:01:04.038Z,19.62
2023-09-05T03:03:32.440Z,19.62
2023-09-05T03:06:08.507Z,19.60
2023-09-05T03:08:36.513Z,19.59
2023-09-05T03:11:03.468Z,19.57
2023-09-05T03:13:30.437Z,19.58
2023-09-05T03:15:57.625Z,19.58
2023-09-05T03:18:26.609Z,19.56
2023-09-05T03:20:54.110Z,19.56
2023-09-05T03:23:24.262Z,19.54
2023-09-05T03:25:53.528Z,19.53
2023-09-05T03:28:21.441Z,19.52
2023-09-05T03:30:48.411Z,19.52
2023-09-05T03:33:15.732Z,19.51
2023-09-05T03:35:44.384Z,19.51
2023-09-05T03:38:11.495Z,19.50
2023-09-05T03:40:38.442Z,19.48
2023-09-05T03:43:05.362Z,19.44
2023-09-05T03:45:32.453Z,19.45
2023-09-05T03:48:02.320Z,19.42
2023-09-05T03:50:30.294Z,19.42
2023-09-05T03:52:57.304Z,19.41
2023-09-05T03:55:24.755Z,19.39
2023-09-05T03:57:51.821Z,19.41
2023-09-05T04:00:18.806Z,19.39
2023-09-05T04:02:46.776Z,19.39
2023-09-05T04:05:14.847Z,19.40
2023-09-05T04:07:43.230Z,19.39
2023-09-05T04:10:10.600Z,19.37
2023-09-05T04:12:38.737Z,19.36
2023-09-05T04:15:06.452Z,19.36
2023-09-05T04:17:33.744Z,19.37
2023-09-05T04:20:00.936Z,19.36
2023-09-05T04:24:58.354Z,19.36
2023-09-05T04:27:25.362Z,19.36
2023-09-05T04:29:56.049Z,19.35
2023-09-05T04:32:30.566Z,19.35
2023-09-05T04:34:59.558Z,19.32
2023-09-05T04:37:26.642Z,19.32
2023-09-05T04:39:53.845Z,19.30
2023-09-05T04:42:20.869Z,19.32
2023-09-05T04:44:48.701Z,19.31
2023-09-05T04:47:35.466Z,19.29
2023-09-05T04:50:02.653Z,19.26
2023-09-05T04:52:30.868Z,19.24
2023-09-05T04:55:01.411Z,19.25
2023-09-05T04:57:29.874Z,19.26
2023-09-05T05:00:01.512Z,19.26
2023-09-05T05:02:29.963Z,19.25
2023-09-05T05:04:57.565Z,19.24
2023-09-05T05:07:25.141Z,19.23
2023-09-05T05:09:52.159Z,19.23
2023-09-05T05:12:19.269Z,19.25
2023-09-05T05:14:46.429Z,19.24
2023-09-05T05:17:14.748Z,19.27
2023-09-05T05:19:42.142Z,19.27
2023-09-05T05:22:09.446Z,19.29
2023-09-05T05:24:36.528Z,19.32
2023-09-05T05:27:03.545Z,19.33
2023-09-05T05:29:33.879Z,19.35
2023-09-05T05:32:02.701Z,19.35
2023-09-05T05:34:31.311Z,19.37
2023-09-05T05:36:58.601Z,19.39
2023-09-05T05:39:27.582Z,19.37
2023-09-05T05:41:55.186Z,19.37
2023-09-05T05:44:22.264Z,19.36
2023-09-05T05:46:49.401Z,19.37
2023-09-05T05:49:16.414Z,19.35
2023-09-05T05:51:43.455Z,19.33
2023-09-05T05:54:11.266Z,19.31
2023-09-05T05:56:38.404Z,19.30
2023-09-05T05:59:05.684Z,19.30
2023-09-05T06:01:33.892Z,19.31
2023-09-05T06:04:01.193Z,19.28
2023-09-05T06:06:28.342Z,19.28
2023-09-05T06:08:55.404Z,19.27
2023-09-05T06:11:22.501Z,19.26
2023-09-05T06:13:53.657Z,19.28
2023-09-05T06:16:22.256Z,19.25
2023-09-05T06:18:49.464Z,18.95
2023-09-05T06:21:16.585Z,18.79
2023-09-05T06:23:43.610Z,18.60
2023-09-05T06:26:10.628Z,18.51
2023-09-05T06:28:37.659Z,18.47
2023-09-05T06:31:06.218Z,18.59
2023-09-05T06:33:33.594Z,18.69
2023-09-05T06:36:06.636Z,18.74
2023-09-05T06:38:34.959Z,18.77
2023-09-05T06:41:09.320Z,18.80
2023-09-05T06:43:36.448Z,18.81
2023-09-05T06:46:08.731Z,18.84
2023-09-05T06:48:36.956Z,18.81
2023-09-05T06:51:04.172Z,18.82
2023-09-05T06:53:32.965Z,18.84
2023-09-05T06:56:00.026Z,18.85
2023-09-05T06:58:28.266Z,18.85
2023-09-05T07:00:56.222Z,18.84
2023-09-05T07:03:24.982Z,18.82
2023-09-05T07:06:05.708Z,18.83
2023-09-05T07:08:34.225Z,18.82
2023-09-05T07:11:01.617Z,18.83
2023-09-05T07:13:29.055Z,18.82
2023-09-05T07:15:58.033Z,18.82
2023-09-05T07:18:26.086Z,18.82
2023-09-05T07:20:53.620Z,18.83
2023-09-05T07:23:20.704Z,18.82
2023-09-05T07:25:47.995Z,18.82
2023-09-05T07:28:15.206Z,18.82
2023-09-05T07:30:42.755Z,18.83
2023-09-05T07:33:10.312Z,18.82
2023-09-05T07:35:37.975Z,18.83
2023-09-05T07:38:05.590Z,18.83
2023-09-05T07:40:32.604Z,18.83
2023-09-05T07:43:01.976Z,18.85
2023-09-05T07:45:29.502Z,18.85
2023-09-05T07:47:56.711Z,18.85
2023-09-05T07:50:24.214Z,18.86
2023-09-05T07:52:51.484Z,18.87
2023-09-05T07:55:19.357Z,18.90
2023-09-05T07:57:46.446Z,18.96
2023-09-05T08:00:17.315Z,19.00
2023-09-05T08:02:45.014Z,19.04
2023-09-05T08:05:13.522Z,19.11
2023-09-05T08:07:40.890Z,19.19
2023-09-05T08:10:08.971Z,19.23
2023-09-05T08:12:36.077Z,19.29
2023-09-05T08:15:03.317Z,19.35
2023-09-05T08:17:32.015Z,19.36
2023-09-05T08:20:00.084Z,19.42
2023-09-05T08:22:27.319Z,19.46
2023-09-05T08:24:54.399Z,19.50
2023-09-05T08:27:21.524Z,19.53
2023-09-05T08:29:49.041Z,19.59
2023-09-05T08:32:16.368Z,19.66
2023-09-05T08:34:43.604Z,19.69
2023-09-05T08:37:10.659Z,19.73
2023-09-05T08:39:38.437Z,19.79
2023-09-05T08:42:09.592Z,19.84
2023-09-05T08:44:43.200Z,19.78
2023-09-05T08:47:10.681Z,19.77
2023-09-05T08:49:39.091Z,19.79
2023-09-05T08:52:08.106Z,19.85
2023-09-05T08:54:35.309Z,19.90
2023-09-05T08:57:04.856Z,19.97
2023-09-05T08:59:33.556Z,20.00
2023-09-05T09:02:01.970Z,19.98
2023-09-05T09:04:29.525Z,20.00
2023-09-05T09:06:57.933Z,20.00
2023-09-05T09:09:36.673Z,19.99
2023-09-05T09:12:04.455Z,20.04
2023-09-05T09:14:34.052Z,20.08
2023-09-05T09:17:06.224Z,20.12
2023-09-05T09:19:34.237Z,20.13
2023-09-05T09:22:04.525Z,20.19
2023-09-05T09:24:36.263Z,20.18
2023-09-05T09:27:05.816Z,20.19
2023-09-05T09:29:34.403Z,20.22
2023-09-05T09:32:10.846Z,20.22
2023-09-05T09:34:39.424Z,20.23
2023-09-05T09:37:06.498Z,20.25
2023-09-05T09:39:34.063Z,20.30
2023-09-05T09:42:02.517Z,20.31
2023-09-05T09:44:32.160Z,20.36
2023-09-05T09:47:01.071Z,20.39
2023-09-05T09:49:30.094Z,20.45
2023-09-05T09:52:05.785Z,20.50
2023-09-05T09:54:40.311Z,20.57
2023-09-05T09:57:10.179Z,20.61
2023-09-05T09:59:43.486Z,20.70
2023-09-05T10:02:15.090Z,20.76
2023-09-05T10:04:44.691Z,20.80
2023-09-05T10:07:19.254Z,20.84
2023-09-05T10:09:49.028Z,20.87
2023-09-05T10:12:22.864Z,20.89
2023-09-05T10:14:50.875Z,20.91
2023-09-05T10:17:21.480Z,20.94
2023-09-05T10:19:51.349Z,20.95
2023-09-05T10:22:18.666Z,20.95
2023-09-05T10:24:47.428Z,20.98
2023-09-05T10:27:14.766Z,21.00
2023-09-05T10:29:49.309Z,21.01
2023-09-05T10:32:19.857Z,21.03
2023-09-05T10:34:50.209Z,21.05
2023-09-05T10:37:20.090Z,21.05
2023-09-05T10:39:48.815Z,21.07
2023-09-05T10:42:17.497Z,21.09
2023-09-05T10:44:47.518Z,21.12
2023-09-05T10:47:34.865Z,21.23
2023-09-05T10:50:06.001Z,21.18
2023-09-05T10:52:34.122Z,21.18
2023-09-05T10:55:27.183Z,21.17
2023-09-05T10:57:54.229Z,21.14
2023-09-05T11:00:22.425Z,21.16
2023-09-05T11:02:50.159Z,21.18
2023-09-05T11:05:20.969Z,21.17
2023-09-05T11:07:52.098Z,21.19
2023-09-05T11:10:28.830Z,21.21
2023-09-05T11:12:56.442Z,21.23
2023-09-05T11:15:34.361Z,21.23
2023-09-05T11:18:08.128Z,21.26
2023-09-05T11:20:42.013Z,21.20
2023-09-05T11:23:15.717Z,21.21
2023-09-05T11:25:55.461Z,21.21
2023-09-05T11:28:24.511Z,21.21
2023-09-05T11:30:58.925Z,21.23
2023-09-05T11:33:28.157Z,21.22
2023-09-05T11:35:55.602Z,21.21
2023-09-05T11:38:24.845Z,21.25
2023-09-05T11:40:55.801Z,21.25
2023-09-05T11:43:24.361Z,21.27
2023-09-05T11:45:57.268Z,21.44
2023-09-05T11:48:30.576Z,21.43
2023-09-05T11:50:58.367Z,21.38
2023-09-05T11:53:25.955Z,21.34
2023-09-05T11:55:53.519Z,21.33
2023-09-05T11:58:20.816Z,21.36
2023-09-05T12:00:52.550Z,21.36
2023-09-05T12:03:20.072Z,21.38
2023-09-05T12:05:53.559Z,21.38
2023-09-05T12:08:35.411Z,21.40
2023-09-05T12:11:05.200Z,21.42
2023-09-05T12:13:42.154Z,21.42
2023-09-05T12:16:10.665Z,21.42
2023-09-05T12:18:42.418Z,21.47
2023-09-05T12:21:12.200Z,21.48
2023-09-05T12:23:39.260Z,21.51
2023-09-05T12:26:06.367Z,21.52
2023-09-05T12:28:34.283Z,21.67
2023-09-05T12:31:08.088Z,21.60
2023-09-05T12:33:35.328Z,21.56
2023-09-05T12:36:02.584Z,21.53
2023-09-05T12:38:32.953Z,21.53
2023-09-05T12:41:00.100Z,21.55
2023-09-05T12:43:27.430Z,21.55
2023-09-05T12:45:54.648Z,21.58
2023-09-05T12:48:21.835Z,21.61
2023-09-05T12:50:51.396Z,21.63
2023-09-05T12:53:21.090Z,21.63
2023-09-05T12:55:48.837Z,21.63
2023-09-05T12:58:16.004Z,21.64
2023-09-05T13:00:43.573Z,21.64
2023-09-05T13:03:13.188Z,21.62
2023-09-05T13:05:41.266Z,21.64
2023-09-05T13:08:11.315Z,21.65
2023-09-05T13:10:38.796Z,21.64
2023-09-05T13:13:08.552Z,21.64
2023-09-05T13:15:37.123Z,21.65
2023-09-05T13:18:04.456Z,21.64
2023-09-05T13:20:32.651Z,21.65
2023-09-05T13:23:00.649Z,21.67
2023-09-05T13:25:30.809Z,21.61
2023-09-05T13:27:58.434Z,21.58
2023-09-05T13:30:26.051Z,21.61
2023-09-05T13:32:54.013Z,21.58
2023-09-05T13:35:21.245Z,21.64
2023-09-05T13:37:48.376Z,21.61
2023-09-05T13:40:15.542Z,21.61
2023-09-05T13:42:42.804Z,21.61
2023-09-05T13:45:10.111Z,21.63
2023-09-05T13:47:39.153Z,21.62
2023-09-05T13:50:08.130Z,21.61
2023-09-05T13:52:35.219Z,21.64
2023-09-05T13:55:02.398Z,21.61
2023-09-05T13:57:29.815Z,21.61
2023-09-05T13:59:56.925Z,21.61
2023-09-05T14:02:24.090Z,21.60
2023-09-05T14:04:52.363Z,21.59
2023-09-05T14:07:19.700Z,21.63
2023-09-05T14:09:46.753Z,21.60
2023-09-05T14:12:19.756Z,21.58
2023-09-05T14:14:46.978Z,21.56
2023-09-05T14:17:15.575Z,21.68
2023-09-05T14:19:42.723Z,21.87
2023-09-05T14:22:10.239Z,21.74
2023-09-05T14:24:37.497Z,21.66
2023-09-05T14:27:05.997Z,21.61
2023-09-05T14:29:34.324Z,21.60
2023-09-05T14:32:01.595Z,21.58
2023-09-05T14:34:28.899Z,21.57
2023-09-05T14:36:56.185Z,21.54
2023-09-05T14:39:23.412Z,21.52
2023-09-05T14:41:50.634Z,21.46
2023-09-05T14:44:18.646Z,21.50
2023-09-05T14:46:45.889Z,21.50
2023-09-05T14:49:13.827Z,21.44
2023-09-05T14:51:42.922Z,21.53
2023-09-05T14:54:10.219Z,21.54
2023-09-05T14:56:37.973Z,21.51
2023-09-05T14:59:05.136Z,21.47
2023-09-05T15:01:32.245Z,21.42
2023-09-05T15:03:59.430Z,21.43
2023-09-05T15:06:26.512Z,21.46
2023-09-05T15:08:53.609Z,21.48
2023-09-05T15:11:20.903Z,21.47
2023-09-05T15:13:47.935Z,21.45
2023-09-05T15:16:15.193Z,21.42
2023-09-05T15:18:42.572Z,21.44
2023-09-05T15:21:09.799Z,21.43
2023-09-05T15:23:36.960Z,21.42
2023-09-05T15:26:06.470Z,21.40
2023-09-05T15:28:33.799Z,21.41
2023-09-05T15:31:01.183Z,21.42
2023-09-05T15:33:28.654Z,21.45
2023-09-05T15:36:00.632Z,21.46
2023-09-05T15:38:28.662Z,21.43
2023-09-05T15:40:56.373Z,21.41
2023-09-05T15:43:23.457Z,21.42
2023-09-05T15:45:52.681Z,21.39
2023-09-05T15:48:19.869Z,21.38
2023-09-05T15:50:47.331Z,21.32
2023-09-05T15:53:17.740Z,21.34
2023-09-05T15:55:45.074Z,21.32
2023-09-05T15:58:12.278Z,21.27
2023-09-05T16:00:39.412Z,21.28
2023-09-05T16:03:06.821Z,21.25
2023-09-05T16:05:34.137Z,21.24
2023-09-05T16:08:01.582Z,21.25
2023-09-05T16:10:28.980Z,21.24
2023-09-05T16:12:56.274Z,21.23
2023-09-05T16:15:23.942Z,21.23
2023-09-05T16:17:51.076Z,21.20
2023-09-05T16:20:18.230Z,21.18
2023-09-05T16:22:48.663Z,21.14
2023-09-05T16:25:16.669Z,21.14
2023-09-05T16:27:44.081Z,21.13
2023-09-05T16:30:11.822Z,21.05
2023-09-05T16:32:38.966Z,20.97
2023-09-05T16:35:06.619Z,20.99
2023-09-05T16:37:33.711Z,21.01
2023-09-05T16:40:00.874Z,20.98
2023-09-05T16:42:28.241Z,20.97
2023-09-05T16:44:55.461Z,20.98
2023-09-05T16:47:23.019Z,20.99
2023-09-05T16:49:50.752Z,21.00
2023-09-05T16:52:18.136Z,21.00
2023-09-05T16:54:45.729Z,21.06
2023-09-05T16:57:14.820Z,21.08
2023-09-05T16:59:42.740Z,21.10
2023-09-05T17:02:10.017Z,21.14
2023-09-05T17:04:38.733Z,21.14
2023-09-05T17:07:07.251Z,21.14
2023-09-05T17:09:34.928Z,21.16
2023-09-05T17:12:02.345Z,21.16
2023-09-05T17:14:30.983Z,21.13
2023-09-05T17:16:58.293Z,21.13
2023-09-05T17:19:26.037Z,21.17
2023-09-05T17:21:54.635Z,21.17
2023-09-05T17:24:21.859Z,21.16
2023-09-05T17:26:49.283Z,21.14
2023-09-05T17:29:17.997Z,21.07
2023-09-05T17:31:45.302Z,21.05
2023-09-05T17:34:16.622Z,21.01
2023-09-05T17:36:43.944Z,20.99
2023-09-05T17:39:12.034Z,20.96
2023-09-05T17:41:40.619Z,20.98
2023-09-05T17:44:07.973Z,21.03
2023-09-05T17:46:35.541Z,21.06
2023-09-05T17:49:03.403Z,21.07
2023-09-05T17:51:30.978Z,21.07
2023-09-05T17:53:58.337Z,21.06
2023-09-05T17:56:29.657Z,21.08
2023-09-05T17:58:57.167Z,21.08
2023-09-05T18:01:25.763Z,21.10
2023-09-05T18:03:55.625Z,21.12
2023-09-05T18:06:23.537Z,21.11
2023-09-05T18:08:53.647Z,21.12
2023-09-05T18:11:24.255Z,21.13
2023-09-05T18:13:51.920Z,21.12
2023-09-05T18:16:20.063Z,21.18
2023-09-05T18:18:49.982Z,21.21
2023-09-05T18:21:19.964Z,21.20
2023-09-05T18:23:47.434Z,21.20
2023-09-05T18:26:15.862Z,21.20
2023-09-05T18:28:46.486Z,21.21
2023-09-05T18:31:18.445Z,21.23
2023-09-05T18:33:47.287Z,21.25
2023-09-05T18:36:16.366Z,21.30
2023-09-05T18:38:45.814Z,21.31
2023-09-05T18:41:21.030Z,21.33
2023-09-05T18:43:51.140Z,21.34
2023-09-05T18:46:20.543Z,21.35
2023-09-05T18:48:48.786Z,21.35
2023-09-05T18:51:19.339Z,21.39
2023-09-05T18:53:47.684Z,21.40
2023-09-05T18:56:18.706Z,21.40
2023-09-05T18:58:46.873Z,21.42
2023-09-05T19:01:20.406Z,21.42
2023-09-05T19:03:48.437Z,21.45
2023-09-05T19:06:16.094Z,21.44
2023-09-05T19:08:45.731Z,21.44
2023-09-05T19:11:16.837Z,21.47
2023-09-05T19:13:44.807Z,21.48
2023-09-05T19:16:12.654Z,21.49
2023-09-05T19:18:41.221Z,21.50
2023-09-05T19:21:08.510Z,21.50
2023-09-05T19:23:36.077Z,21.52
2023-09-05T19:26:06.580Z,21.52
2023-09-05T19:28:34.387Z,21.53
2023-09-05T19:31:05.161Z,21.57
2023-09-05T19:33:33.655Z,21.59
2023-09-05T19:36:03.218Z,21.58
2023-09-05T19:38:32.792Z,21.60
2023-09-05T19:41:11.755Z,21.61
2023-09-05T19:43:41.528Z,21.60
2023-09-05T19:46:10.042Z,21.57
2023-09-05T19:48:39.153Z,21.54
2023-09-05T19:51:07.738Z,21.55
2023-09-05T19:53:35.433Z,21.56
2023-09-05T19:56:08.926Z,21.54
2023-09-05T19:58:39.052Z,21.54
2023-09-05T20:01:07.871Z,21.55
2023-09-05T20:03:36.941Z,21.52
2023-09-05T20:06:06.620Z,21.52
2023-09-05T20:08:43.526Z,21.51
2023-09-05T20:11:11.650Z,21.50
2023-09-05T20:13:39.826Z,21.53
2023-09-05T20:16:09.634Z,21.49
2023-09-05T20:18:37.502Z,21.47
2023-09-05T20:21:07.018Z,21.48
2023-09-05T20:23:35.582Z,21.49
2023-09-05T20:26:04.333Z,21.48
2023-09-05T20:28:33.277Z,21.48
2023-09-05T20:31:03.022Z,21.47
2023-09-05T20:33:36.136Z,21.47
2023-09-05T20:36:06.934Z,21.47
2023-09-05T20:38:36.061Z,21.46
2023-09-05T20:41:05.508Z,21.45
2023-09-05T20:43:35.112Z,21.45
2023-09-05T20:46:02.736Z,21.44
2023-09-05T20:48:32.887Z,21.43
2023-09-05T20:51:02.228Z,21.43
2023-09-05T20:53:30.216Z,21.41
2023-09-05T20:56:00.860Z,21.40
2023-09-05T20:58:29.290Z,21.40
2023-09-05T21:00:59.024Z,21.40
2023-09-05T21:03:27.002Z,21.40
2023-09-05T21:05:54.841Z,21.36
2023-09-05T21:08:28.254Z,21.26
2023-09-05T21:10:56.461Z,21.20
2023-09-05T21:13:25.686Z,21.12
2023-09-05T21:16:03.932Z,21.06
2023-09-05T21:18:32.578Z,20.99
2023-09-05T21:21:00.622Z,20.97
2023-09-05T21:23:28.435Z,20.94
2023-09-05T21:25:56.078Z,20.91
2023-09-05T21:28:23.521Z,20.89
2023-09-05T21:30:52.519Z,20.84
2023-09-05T21:33:20.980Z,20.80
2023-09-05T21:35:52.231Z,20.79
2023-09-05T21:38:21.083Z,20.78
2023-09-05T21:40:50.463Z,20.73
2023-09-05T21:43:18.761Z,20.73
2023-09-05T21:45:47.798Z,20.69
2023-09-05T21:48:15.532Z,20.69
2023-09-05T21:50:43.517Z,20.66
2023-09-05T21:53:10.894Z,20.67
2023-09-05T21:55:38.330Z,20.64
2023-09-05T21:58:05.907Z,20.62
2023-09-05T22:00:34.678Z,20.60
2023-09-05T22:03:04.067Z,20.58
2023-09-05T22:05:32.334Z,20.55
2023-09-05T22:08:02.348Z,20.54
2023-09-05T22:10:29.854Z,20.51
2023-09-05T22:12:57.154Z,20.52
2023-09-05T22:15:24.491Z,20.49
2023-09-05T22:17:54.891Z,20.50
2023-09-05T22:20:24.336Z,20.48
2023-09-05T22:22:51.925Z,20.47
2023-09-05T22:25:19.876Z,20.48
2023-09-05T22:27:47.858Z,20.46
2023-09-05T22:30:17.292Z,20.45
2023-09-05T22:32:45.080Z,20.43
2023-09-05T22:35:12.869Z,20.41
2023-09-05T22:37:40.287Z,20.38
2023-09-05T22:40:26.459Z,20.38
2023-09-05T22:42:53.621Z,20.36
2023-09-05T22:45:22.393Z,20.34
2023-09-05T22:47:51.346Z,20.33
2023-09-05T22:50:18.649Z,20.33
2023-09-05T22:52:45.971Z,20.32
2023-09-05T22:55:13.894Z,20.32
2023-09-05T22:57:40.981Z,20.29
2023-09-05T23:00:17.859Z,20.30
2023-09-05T23:02:45.248Z,20.29
2023-09-05T23:05:13.932Z,20.28
2023-09-05T23:07:45.319Z,20.25
2023-09-05T23:10:12.892Z,20.25
2023-09-05T23:12:39.875Z,20.23
2023-09-05T23:15:07.612Z,20.23
2023-09-05T23:17:34.981Z,20.23
2023-09-05T23:20:02.427Z,20.23
2023-09-05T23:22:29.916Z,20.20
2023-09-05T23:24:57.098Z,20.19
2023-09-05T23:27:25.246Z,20.20
2023-09-05T23:29:52.334Z,20.20
2023-09-05T23:32:19.356Z,20.19
2023-09-05T23:34:46.342Z,20.16
2023-09-05T23:37:13.676Z,20.19
2023-09-05T23:39:42.361Z,20.15
2023-09-05T23:42:09.593Z,20.14
2023-09-05T23:44:36.767Z,20.17
2023-09-05T23:47:07.841Z,20.15
2023-09-05T23:49:37.742Z,20.12
2023-09-05T23:52:05.646Z,20.09
2023-09-05T23:54:32.946Z,20.09
2023-09-05T23:57:00.103Z,20.12
2023-09-05T23:59:27.352Z,20.11
